createdAt,value
2019-04-06T00:00:35.739Z,4.63
2019-04-06T00:03:03.979Z,4.63
2019-04-06T00:05:32.258Z,4.57
2019-04-06T00:08:00.525Z,4.58
2019-04-06T00:10:28.810Z,4.50
2019-04-06T00:12:57.074Z,4.49
2019-04-06T00:15:25.348Z,4.42
2019-04-06T00:17:53.631Z,4.40
2019-04-06T00:20:21.903Z,4.40
2019-04-06T00:22:50.176Z,4.38
2019-04-06T00:25:18.507Z,4.42
2019-04-06T00:27:46.716Z,4.39
2019-04-06T00:30:15.237Z,4.41
2019-04-06T00:32:47.934Z,4.42
2019-04-06T00:35:16.228Z,4.38
2019-04-06T00:37:44.492Z,4.39
2019-04-06T00:40:12.846Z,4.40
2019-04-06T00:42:41.113Z,4.35
2019-04-06T00:45:09.478Z,4.29
2019-04-06T00:47:37.723Z,4.21
2019-04-06T00:50:07.381Z,4.17
2019-04-06T00:52:35.642Z,4.16
2019-04-06T00:55:05.277Z,4.15
2019-04-06T00:57:33.542Z,4.11
2019-04-06T01:00:01.892Z,4.09
2019-04-06T01:02:30.177Z,4.09
2019-04-06T01:04:58.451Z,4.07
2019-04-06T01:07:26.718Z,3.95
2019-04-06T01:09:55.016Z,3.85
2019-04-06T01:12:23.285Z,3.86
2019-04-06T01:14:51.587Z,3.82
2019-04-06T01:17:19.833Z,3.86
2019-04-06T01:19:48.110Z,3.90
2019-04-06T01:22:16.368Z,3.92
2019-04-06T01:24:44.655Z,3.89
2019-04-06T01:27:12.938Z,3.86
2019-04-06T01:29:41.224Z,3.80
2019-04-06T01:32:09.552Z,3.79
2019-04-06T01:34:37.840Z,3.80
2019-04-06T01:37:06.110Z,3.72
2019-04-06T01:39:34.389Z,3.70
2019-04-06T01:42:09.454Z,3.68
2019-04-06T01:44:37.743Z,3.61
2019-04-06T01:47:06.000Z,3.50
2019-04-06T01:49:34.270Z,3.34
2019-04-06T01:52:02.584Z,3.28
2019-04-06T01:54:30.839Z,3.24
2019-04-06T01:56:59.115Z,3.28
2019-04-06T01:59:27.449Z,3.23
2019-04-06T02:02:03.153Z,3.14
2019-04-06T02:04:31.458Z,3.07
2019-04-06T02:06:59.735Z,3.13
2019-04-06T02:09:28.024Z,3.14
2019-04-06T02:11:56.289Z,3.13
2019-04-06T02:14:24.554Z,3.06
2019-04-06T02:16:52.838Z,3.06
2019-04-06T02:19:21.100Z,3.11
2019-04-06T02:21:49.461Z,3.17
2019-04-06T02:24:17.792Z,3.11
2019-04-06T02:26:46.088Z,3.07
2019-04-06T02:29:14.342Z,2.98
2019-04-06T02:31:49.739Z,2.97
2019-04-06T02:34:31.532Z,2.83
2019-04-06T02:37:16.125Z,2.80
2019-04-06T02:39:51.934Z,2.74
2019-04-06T02:42:22.005Z,2.70
2019-04-06T02:44:50.434Z,2.76
2019-04-06T02:47:18.835Z,2.77
2019-04-06T02:49:47.165Z,2.79
2019-04-06T02:52:15.463Z,2.75
2019-04-06T02:54:43.736Z,2.71
2019-04-06T02:57:12.041Z,2.64
2019-04-06T02:59:40.502Z,2.59
2019-04-06T03:02:08.791Z,2.49
2019-04-06T03:04:37.069Z,2.51
2019-04-06T03:07:05.367Z,2.56
2019-04-06T03:09:33.602Z,2.63
2019-04-06T03:12:02.050Z,2.61
2019-04-06T03:14:30.385Z,2.48
2019-04-06T03:16:58.664Z,2.48
2019-04-06T03:19:27.316Z,2.27
2019-04-06T03:21:55.624Z,2.13
2019-04-06T03:24:23.846Z,1.96
2019-04-06T03:27:00.668Z,1.91
2019-04-06T03:29:22.264Z,1.81
2019-04-06T03:31:50.490Z,1.75
2019-04-06T03:34:21.577Z,1.73
2019-04-06T03:36:48.783Z,1.69
2019-04-06T03:39:17.048Z,1.59
2019-04-06T03:41:45.317Z,1.65
2019-04-06T03:44:13.593Z,1.76
2019-04-06T03:46:41.864Z,1.72
2019-04-06T03:49:10.129Z,1.71
2019-04-06T03:51:38.474Z,1.58
2019-04-06T03:54:06.742Z,1.50
2019-04-06T03:56:35.024Z,1.50
2019-04-06T03:59:03.304Z,1.47
2019-04-06T04:01:31.607Z,1.54
2019-04-06T04:03:59.872Z,1.60
2019-04-06T04:06:28.127Z,1.66
2019-04-06T04:08:56.441Z,1.76
2019-04-06T04:11:24.947Z,1.79
2019-04-06T04:13:53.270Z,1.68
2019-04-06T04:16:21.515Z,1.48
2019-04-06T04:18:49.978Z,1.46
2019-04-06T04:21:18.344Z,1.53
2019-04-06T04:23:46.608Z,1.60
2019-04-06T04:26:14.874Z,1.57
2019-04-06T04:28:43.152Z,1.54
2019-04-06T04:31:11.495Z,1.49
2019-04-06T04:33:39.789Z,1.37
2019-04-06T04:36:08.124Z,1.44
2019-04-06T04:38:36.410Z,1.40
2019-04-06T04:41:04.673Z,1.33
2019-04-06T04:43:32.955Z,1.36
2019-04-06T04:46:01.219Z,1.28
2019-04-06T04:48:29.622Z,1.37
2019-04-06T04:50:57.886Z,1.43
2019-04-06T04:53:26.170Z,1.26
2019-04-06T04:55:54.434Z,1.20
2019-04-06T04:58:22.720Z,1.15
2019-04-06T05:00:51.201Z,1.16
2019-04-06T05:03:19.515Z,1.25
2019-04-06T05:05:47.746Z,1.24
2019-04-06T05:08:16.022Z,1.23
2019-04-06T05:10:45.182Z,1.24
2019-04-06T05:13:13.505Z,1.04
2019-04-06T05:15:53.654Z,1.01
2019-04-06T05:18:21.939Z,1.06
2019-04-06T05:20:50.269Z,1.14
2019-04-06T05:23:18.569Z,1.19
2019-04-06T05:25:46.823Z,1.05
2019-04-06T05:28:15.260Z,1.07
2019-04-06T05:30:43.556Z,1.05
2019-04-06T05:33:11.816Z,0.99
2019-04-06T05:35:40.297Z,0.95
2019-04-06T05:38:08.629Z,1.00
2019-04-06T05:40:37.039Z,1.10
2019-04-06T05:43:05.300Z,1.11
2019-04-06T05:45:33.573Z,1.09
2019-04-06T05:48:01.839Z,1.22
2019-04-06T05:50:30.198Z,1.31
2019-04-06T05:52:58.454Z,1.23
2019-04-06T05:55:26.727Z,1.34
2019-04-06T05:58:03.717Z,1.43
2019-04-06T06:00:25.154Z,1.44
2019-04-06T06:02:53.411Z,1.34
2019-04-06T06:05:21.885Z,1.10
2019-04-06T06:07:50.217Z,0.99
2019-04-06T06:10:18.869Z,0.97
2019-04-06T06:12:47.179Z,1.06
2019-04-06T06:15:15.500Z,1.21
2019-04-06T06:17:43.792Z,1.28
2019-04-06T06:20:12.067Z,1.43
2019-04-06T06:22:40.349Z,1.61
2019-04-06T06:25:08.665Z,1.76
2019-04-06T06:27:36.928Z,1.94
2019-04-06T06:30:06.764Z,2.07
2019-04-06T06:32:35.030Z,2.19
2019-04-06T06:35:03.456Z,2.38
2019-04-06T06:37:31.819Z,2.52
2019-04-06T06:40:00.098Z,2.68
2019-04-06T06:42:28.479Z,2.80
2019-04-06T06:44:56.710Z,2.85
2019-04-06T06:47:24.963Z,2.99
2019-04-06T06:49:54.817Z,3.07
2019-04-06T06:52:23.153Z,3.19
2019-04-06T06:54:51.472Z,3.20
2019-04-06T06:57:19.776Z,3.19
2019-04-06T06:59:48.095Z,3.30
2019-04-06T07:02:16.384Z,3.38
2019-04-06T07:04:44.838Z,3.55
2019-04-06T07:07:13.156Z,3.61
2019-04-06T07:09:41.406Z,3.72
2019-04-06T07:12:09.733Z,3.82
2019-04-06T07:14:38.074Z,3.89
2019-04-06T07:17:06.349Z,4.03
2019-04-06T07:19:34.593Z,4.11
2019-04-06T07:22:02.897Z,4.20
2019-04-06T07:24:31.139Z,4.26
2019-04-06T07:26:59.615Z,4.36
2019-04-06T07:29:27.871Z,4.43
2019-04-06T07:31:56.145Z,4.45
2019-04-06T07:34:24.418Z,4.55
2019-04-06T07:36:52.710Z,4.62
2019-04-06T07:39:21.186Z,4.71
2019-04-06T07:41:49.432Z,4.83
2019-04-06T07:44:17.758Z,4.86
2019-04-06T07:46:46.138Z,4.94
2019-04-06T07:49:14.718Z,4.95
2019-04-06T07:51:43.056Z,5.00
2019-04-06T07:54:11.334Z,5.19
2019-04-06T07:56:39.615Z,5.29
2019-04-06T07:59:07.888Z,5.39
2019-04-06T08:01:36.230Z,5.55
2019-04-06T08:04:04.853Z,5.70
2019-04-06T08:06:34.076Z,5.78
2019-04-06T08:09:02.373Z,5.91
2019-04-06T08:11:30.651Z,6.03
2019-04-06T08:13:58.915Z,6.20
2019-04-06T08:16:27.191Z,6.21
2019-04-06T08:18:55.442Z,6.33
2019-04-06T08:21:23.851Z,6.55
2019-04-06T08:23:52.121Z,6.68
2019-04-06T08:26:20.617Z,6.81
2019-04-06T08:28:59.796Z,6.88
2019-04-06T08:31:18.940Z,7.09
2019-04-06T08:33:47.235Z,7.29
2019-04-06T08:36:16.257Z,7.32
2019-04-06T08:38:43.960Z,7.54
2019-04-06T08:41:12.431Z,7.57
2019-04-06T08:43:40.734Z,7.70
2019-04-06T08:46:09.031Z,7.80
2019-04-06T08:48:37.567Z,7.90
2019-04-06T08:51:05.893Z,8.11
2019-04-06T08:53:34.311Z,8.46
2019-04-06T08:56:02.689Z,8.40
2019-04-06T08:58:30.973Z,8.46
2019-04-06T09:00:59.215Z,8.81
2019-04-06T09:03:27.513Z,8.77
2019-04-06T09:05:55.779Z,8.98
2019-04-06T09:08:24.056Z,9.06
2019-04-06T09:10:52.444Z,9.34
2019-04-06T09:13:21.014Z,9.36
2019-04-06T09:15:49.499Z,9.51
2019-04-06T09:18:17.813Z,9.69
2019-04-06T09:23:37.488Z,10.00
2019-04-06T09:26:05.790Z,10.14
2019-04-06T09:28:34.078Z,10.39
2019-04-06T09:31:02.351Z,10.59
2019-04-06T09:33:30.637Z,10.77
2019-04-06T09:35:58.923Z,10.94
2019-04-06T09:38:27.476Z,11.52
2019-04-06T09:40:55.802Z,12.28
2019-04-06T09:43:24.402Z,12.92
2019-04-06T09:45:57.198Z,13.64
2019-04-06T09:48:33.055Z,14.24
2019-04-06T09:51:08.943Z,15.17
2019-04-06T09:53:47.964Z,15.73
2019-04-06T09:56:17.839Z,16.07
2019-04-06T09:58:50.531Z,15.78
2019-04-06T10:01:38.967Z,16.34
2019-04-06T10:04:10.374Z,17.40
2019-04-06T10:06:52.215Z,16.30
2019-04-06T10:09:37.362Z,15.60
2019-04-06T10:12:23.128Z,15.08
2019-04-06T10:14:55.616Z,15.24
2019-04-06T10:17:28.469Z,15.77
2019-04-06T10:20:01.125Z,15.38
2019-04-06T10:22:39.759Z,16.09
2019-04-06T10:25:18.638Z,17.12
2019-04-06T10:27:51.451Z,18.10
2019-04-06T10:30:21.355Z,16.23
2019-04-06T10:32:53.827Z,16.91
2019-04-06T10:35:38.880Z,17.81
2019-04-06T10:38:24.940Z,18.48
2019-04-06T10:41:03.784Z,19.02
2019-04-06T10:43:36.260Z,19.08
2019-04-06T10:46:08.924Z,19.67
2019-04-06T10:48:48.091Z,19.99
2019-04-06T10:51:17.999Z,20.30
2019-04-06T10:53:56.727Z,18.36
2019-04-06T10:56:32.186Z,17.75
2019-04-06T10:59:18.502Z,18.03
2019-04-06T11:01:48.452Z,19.30
2019-04-06T11:04:21.093Z,20.10
2019-04-06T11:06:56.502Z,20.56
2019-04-06T11:09:31.906Z,20.95
2019-04-06T11:12:01.828Z,20.69
2019-04-06T11:14:37.638Z,19.90
2019-04-06T11:17:13.751Z,18.92
2019-04-06T11:19:50.618Z,18.71
2019-04-06T11:22:23.487Z,19.59
2019-04-06T11:24:59.387Z,19.54
2019-04-06T11:27:45.167Z,20.19
2019-04-06T11:30:21.101Z,20.93
2019-04-06T11:33:09.008Z,21.18
2019-04-06T11:35:41.459Z,21.03
2019-04-06T11:38:11.438Z,20.40
2019-04-06T11:40:56.655Z,21.54
2019-04-06T11:43:26.633Z,20.72
2019-04-06T11:46:07.882Z,21.45
2019-04-06T11:48:37.790Z,21.98
2019-04-06T11:51:22.955Z,22.17
2019-04-06T11:53:58.406Z,21.71
2019-04-06T11:56:46.270Z,20.79
2019-04-06T11:59:18.941Z,20.77
2019-04-06T12:01:54.343Z,21.36
2019-04-06T12:04:24.262Z,19.99
2019-04-06T12:07:09.801Z,19.88
2019-04-06T12:09:39.720Z,20.00
2019-04-06T12:12:21.418Z,20.30
2019-04-06T12:14:57.108Z,19.75
2019-04-06T12:17:29.757Z,19.34
2019-04-06T12:20:02.241Z,19.06
2019-04-06T12:22:41.876Z,18.83
2019-04-06T12:25:11.221Z,19.11
2019-04-06T12:27:52.936Z,18.62
2019-04-06T12:30:39.430Z,18.80
2019-04-06T12:33:25.583Z,17.95
2019-04-06T12:35:58.242Z,18.23
2019-04-06T12:38:44.294Z,17.86
2019-04-06T12:41:30.708Z,18.12
2019-04-06T12:44:03.201Z,19.55
2019-04-06T12:46:52.079Z,20.06
2019-04-06T12:49:33.380Z,19.91
2019-04-06T12:52:03.848Z,19.11
2019-04-06T12:54:39.242Z,19.11
2019-04-06T12:57:12.225Z,19.02
2019-04-06T12:59:47.916Z,19.99
2019-04-06T13:02:20.272Z,20.46
2019-04-06T13:05:06.339Z,20.95
2019-04-06T13:07:42.101Z,20.42
2019-04-06T13:10:14.698Z,20.30
2019-04-06T13:12:44.626Z,19.65
2019-04-06T13:15:18.082Z,19.24
2019-04-06T13:18:02.848Z,19.15
2019-04-06T13:20:35.880Z,18.45
2019-04-06T13:23:18.216Z,18.24
2019-04-06T13:25:56.971Z,19.24
2019-04-06T13:28:29.751Z,19.30
2019-04-06T13:31:17.951Z,18.23
2019-04-06T13:33:56.817Z,17.83
2019-04-06T13:36:27.027Z,17.63
2019-04-06T13:38:56.937Z,17.15
2019-04-06T13:41:29.842Z,16.94
2019-04-06T13:44:16.326Z,16.79
2019-04-06T13:47:02.737Z,16.73
2019-04-06T13:49:38.542Z,16.45
2019-04-06T13:52:11.239Z,16.42
2019-04-06T13:54:41.261Z,16.68
2019-04-06T13:57:22.940Z,16.55
2019-04-06T13:59:53.140Z,16.84
2019-04-06T14:02:26.034Z,17.09
2019-04-06T14:05:10.943Z,17.23
2019-04-06T14:07:43.705Z,17.23
2019-04-06T14:10:16.084Z,17.01
2019-04-06T14:13:04.592Z,17.83
2019-04-06T14:15:52.571Z,18.69
2019-04-06T14:18:28.525Z,19.37
2019-04-06T14:21:04.515Z,19.52
2019-04-06T14:23:50.830Z,19.20
2019-04-06T14:26:35.646Z,19.13
2019-04-06T14:29:23.854Z,19.39
2019-04-06T14:31:56.821Z,19.37
2019-04-06T14:34:42.951Z,19.37
2019-04-06T14:37:24.845Z,19.65
2019-04-06T14:40:10.571Z,19.55
2019-04-06T14:42:43.207Z,20.24
2019-04-06T14:45:21.675Z,20.68
2019-04-06T14:47:51.615Z,20.93
2019-04-06T14:50:21.527Z,20.87
2019-04-06T14:52:57.451Z,20.83
2019-04-06T14:55:27.754Z,19.58
2019-04-06T14:58:00.227Z,18.43
2019-04-06T15:00:46.344Z,18.12
2019-04-06T15:03:28.262Z,18.86
2019-04-06T15:06:16.286Z,19.65
2019-04-06T15:08:46.657Z,19.65
2019-04-06T15:11:19.057Z,19.63
2019-04-06T15:13:52.018Z,19.74
2019-04-06T15:16:24.552Z,20.08
2019-04-06T15:19:00.220Z,20.37
2019-04-06T15:21:35.796Z,20.60
2019-04-06T15:24:17.855Z,20.66
2019-04-06T15:26:47.760Z,20.74
2019-04-06T15:29:29.964Z,20.66
2019-04-06T15:32:02.999Z,20.42
2019-04-06T15:34:48.813Z,20.03
2019-04-06T15:37:24.713Z,19.97
2019-04-06T15:40:03.206Z,19.23
2019-04-06T15:53:43.176Z,19.76
2019-04-06T15:56:14.068Z,19.65
2019-04-06T15:58:44.011Z,19.21
2019-04-06T16:01:28.670Z,18.83
2019-04-06T16:04:04.073Z,18.69
2019-04-06T16:06:39.951Z,18.50
2019-04-06T16:09:10.073Z,18.50
2019-04-06T16:11:42.512Z,18.30
2019-04-06T16:14:15.171Z,18.30
2019-04-06T16:16:45.080Z,18.40
2019-04-06T16:19:20.989Z,18.51
2019-04-06T16:22:06.915Z,18.27
2019-04-06T16:24:39.538Z,18.35
2019-04-06T16:27:18.697Z,18.39
2019-04-06T16:29:48.750Z,18.26
2019-04-06T16:32:18.716Z,18.28
2019-04-06T16:34:51.804Z,18.34
2019-04-06T16:37:36.206Z,18.33
2019-04-06T16:40:08.047Z,18.32
2019-04-06T16:42:43.569Z,18.35
2019-04-06T16:45:16.082Z,18.18
2019-04-06T16:47:46.110Z,17.97
2019-04-06T16:50:25.280Z,17.88
2019-04-06T16:52:55.306Z,17.78
2019-04-06T16:55:41.795Z,17.68
2019-04-06T16:58:28.261Z,17.73
2019-04-06T17:01:04.373Z,17.31
2019-04-06T17:03:43.106Z,17.12
2019-04-06T17:06:18.620Z,16.88
2019-04-06T17:08:57.675Z,16.73
2019-04-06T17:11:27.937Z,16.43
2019-04-06T17:14:00.506Z,16.23
2019-04-06T17:16:42.128Z,16.12
2019-04-06T17:19:27.030Z,16.03
2019-04-06T17:22:05.779Z,15.90
2019-04-06T17:24:36.236Z,15.86
2019-04-06T17:27:22.080Z,15.87
2019-04-06T17:30:00.808Z,15.68
2019-04-06T17:32:39.514Z,15.62
2019-04-06T17:35:24.233Z,15.32
2019-04-06T17:37:56.702Z,15.21
2019-04-06T17:40:35.662Z,15.15
2019-04-06T17:43:21.767Z,15.10
2019-04-06T17:45:54.149Z,14.93
2019-04-06T17:48:40.261Z,14.80
2019-04-06T17:51:19.274Z,14.72
2019-04-06T17:54:05.262Z,14.56
2019-04-06T17:56:35.208Z,14.55
2019-04-06T17:59:05.549Z,14.43
2019-04-06T18:01:52.058Z,14.33
2019-04-06T18:04:33.959Z,14.22
2019-04-06T18:07:07.452Z,14.07
2019-04-06T18:09:37.382Z,13.98
2019-04-06T18:12:10.120Z,13.89
2019-04-06T18:14:38.546Z,13.82
2019-04-06T18:17:06.961Z,13.72
2019-04-06T18:19:35.289Z,13.63
2019-04-06T18:22:04.084Z,13.54
2019-04-06T18:24:32.737Z,13.45
2019-04-06T18:27:01.114Z,13.44
2019-04-06T18:29:29.837Z,13.40
2019-04-06T18:32:15.293Z,13.37
2019-04-06T18:34:43.555Z,13.33
2019-04-06T18:37:22.415Z,13.27
2019-04-06T18:39:58.106Z,13.25
2019-04-06T18:42:26.398Z,13.23
2019-04-06T18:44:54.669Z,13.19
2019-04-06T18:47:23.156Z,13.18
2019-04-06T18:49:51.426Z,13.13
2019-04-06T18:52:20.075Z,13.10
2019-04-06T18:54:48.547Z,13.05
2019-04-06T18:57:17.277Z,13.01
2019-04-06T18:59:46.032Z,12.94
2019-04-06T19:02:14.772Z,12.83
2019-04-06T19:04:43.106Z,12.79
2019-04-06T19:07:11.405Z,12.76
2019-04-06T19:09:39.711Z,12.72
2019-04-06T19:12:07.949Z,12.67
2019-04-06T19:14:36.348Z,12.63
2019-04-06T19:17:04.606Z,12.54
2019-04-06T19:19:32.923Z,12.45
2019-04-06T19:22:01.437Z,12.37
2019-04-06T19:24:30.288Z,12.30
2019-04-06T19:26:58.985Z,12.19
2019-04-06T19:29:27.430Z,12.09
2019-04-06T19:31:57.951Z,12.05
2019-04-06T19:34:25.986Z,11.98
2019-04-06T19:36:54.318Z,11.93
2019-04-06T19:39:22.588Z,11.89
2019-04-06T19:41:51.072Z,11.77
2019-04-06T19:44:19.368Z,11.66
2019-04-06T19:46:47.856Z,11.57
2019-04-06T19:49:16.147Z,11.52
2019-04-06T19:51:44.417Z,11.44
2019-04-06T19:54:13.027Z,11.45
2019-04-06T19:56:41.431Z,11.41
2019-04-06T19:59:09.859Z,11.35
2019-04-06T20:01:38.971Z,11.27
2019-04-06T20:04:07.245Z,11.20
2019-04-06T20:06:35.522Z,11.07
2019-04-06T20:09:05.513Z,11.04
2019-04-06T20:11:34.705Z,11.00
2019-04-06T20:14:03.151Z,10.92
2019-04-06T20:16:31.871Z,10.88
2019-04-06T20:19:00.199Z,10.78
2019-04-06T20:21:28.529Z,10.73
2019-04-06T20:23:57.229Z,10.63
2019-04-06T20:26:25.522Z,10.63
2019-04-06T20:28:53.785Z,10.60
2019-04-06T20:31:22.459Z,10.65
2019-04-06T20:33:52.378Z,10.63
2019-04-06T20:36:20.813Z,10.58
2019-04-06T20:38:49.115Z,10.53
2019-04-06T20:41:17.397Z,10.50
2019-04-06T20:43:45.663Z,10.47
2019-04-06T20:46:13.949Z,10.39
2019-04-06T20:48:42.217Z,10.36
2019-04-06T20:51:10.570Z,10.33
2019-04-06T20:53:38.855Z,10.40
2019-04-06T20:56:07.143Z,10.40
2019-04-06T20:58:35.911Z,10.39
2019-04-06T21:01:04.381Z,10.36
2019-04-06T21:03:32.652Z,10.16
2019-04-06T21:06:00.955Z,10.02
2019-04-06T21:08:29.715Z,9.62
2019-04-06T21:10:58.063Z,9.51
2019-04-06T21:13:26.727Z,9.57
2019-04-06T21:15:55.481Z,9.57
2019-04-06T21:18:24.358Z,9.51
2019-04-06T21:20:54.259Z,9.27
2019-04-06T21:23:22.843Z,8.92
2019-04-06T21:25:51.851Z,8.76
2019-04-06T21:28:21.169Z,8.72
2019-04-06T21:30:49.487Z,8.70
2019-04-06T21:33:17.705Z,8.55
2019-04-06T21:35:45.998Z,8.28
2019-04-06T21:38:14.273Z,8.22
2019-04-06T21:40:42.539Z,8.12
2019-04-06T21:43:10.800Z,8.12
2019-04-06T21:45:39.409Z,8.06
2019-04-06T21:48:07.676Z,7.99
2019-04-06T21:50:35.976Z,8.06
2019-04-06T21:53:04.357Z,8.05
2019-04-06T21:55:32.576Z,7.98
2019-04-06T21:58:00.838Z,8.10
2019-04-06T22:00:33.352Z,7.93
2019-04-06T22:03:01.661Z,7.74
2019-04-06T22:05:29.923Z,7.72
2019-04-06T22:07:58.246Z,7.82
2019-04-06T22:10:26.512Z,7.75
2019-04-06T22:12:54.764Z,7.73
2019-04-06T22:15:23.067Z,7.80
2019-04-06T22:17:51.363Z,7.93
2019-04-06T22:20:19.753Z,8.01
2019-04-06T22:22:48.205Z,8.06
2019-04-06T22:25:16.408Z,7.92
2019-04-06T22:27:44.948Z,7.70
2019-04-06T22:30:16.058Z,7.58
2019-04-06T22:32:43.303Z,7.55
2019-04-06T22:35:11.595Z,7.70
2019-04-06T22:37:39.863Z,7.83
2019-04-06T22:40:08.597Z,7.83
2019-04-06T22:42:37.128Z,7.82
2019-04-06T22:45:09.766Z,7.76
2019-04-06T22:47:38.166Z,7.66
2019-04-06T22:50:07.029Z,7.64
2019-04-06T22:52:35.419Z,7.66
2019-04-06T22:55:07.455Z,7.73
2019-04-06T22:57:36.124Z,7.74
2019-04-06T23:00:06.811Z,7.66
2019-04-06T23:02:39.659Z,7.54
2019-04-06T23:05:18.872Z,7.40
2019-04-06T23:07:47.246Z,7.26
2019-04-06T23:10:15.817Z,7.27
2019-04-06T23:12:44.160Z,7.34
2019-04-06T23:15:12.629Z,7.37
2019-04-06T23:17:40.863Z,7.30
2019-04-06T23:20:09.510Z,7.21
2019-04-06T23:22:37.879Z,7.27
2019-04-06T23:25:06.132Z,7.26
2019-04-06T23:27:34.410Z,7.24
2019-04-06T23:30:03.116Z,7.15
2019-04-06T23:32:31.914Z,7.13
2019-04-06T23:35:02.293Z,7.11
2019-04-06T23:37:30.260Z,7.13
2019-04-06T23:39:59.044Z,7.10
2019-04-06T23:42:27.414Z,6.97
2019-04-06T23:44:55.663Z,6.79
2019-04-06T23:47:23.953Z,6.69
2019-04-06T23:49:52.323Z,6.67
2019-04-06T23:52:20.563Z,6.63
2019-04-06T23:54:48.835Z,6.66
2019-04-06T23:57:17.133Z,6.60
2019-04-06T23:59:45.386Z,6.66
